createdAt,value
2023-02-16T00:00:45.953Z,29.5
2023-02-16T00:01:54.293Z,29.5
2023-02-16T00:03:02.685Z,29.5
2023-02-16T00:04:11.167Z,29.4
2023-02-16T00:05:19.485Z,29.4
2023-02-16T00:06:27.904Z,29.4
2023-02-16T00:07:36.380Z,31
2023-02-16T00:08:44.735Z,31
2023-02-16T00:09:53.054Z,31
2023-02-16T00:11:01.966Z,31
2023-02-16T00:12:09.957Z,31
2023-02-16T00:13:18.302Z,31
2023-02-16T00:14:26.820Z,31.5
2023-02-16T00:15:35.179Z,31.5
2023-02-16T00:16:43.505Z,31.5
2023-02-16T00:17:52.049Z,30.6
2023-02-16T00:19:00.385Z,30.6
2023-02-16T00:20:08.708Z,30.6
2023-02-16T00:21:17.261Z,28.5
2023-02-16T00:22:25.621Z,28.5
2023-02-16T00:23:33.921Z,28.5
2023-02-16T00:24:42.489Z,31.1
2023-02-16T00:25:50.825Z,31.1
2023-02-16T00:26:59.179Z,31.1
2023-02-16T00:28:07.718Z,30.200001
2023-02-16T00:29:16.037Z,30.200001
2023-02-16T00:30:24.417Z,30.200001
2023-02-16T00:31:33.079Z,28.700001
2023-02-16T00:32:41.251Z,28.700001
2023-02-16T00:33:49.568Z,28.700001
2023-02-16T00:34:58.096Z,29
2023-02-16T00:36:06.410Z,29
2023-02-16T00:37:14.769Z,29
2023-02-16T00:38:23.337Z,28.6
2023-02-16T00:39:31.644Z,28.6
2023-02-16T00:40:39.977Z,28.6
2023-02-16T00:41:48.519Z,31.700001
2023-02-16T00:42:57.626Z,31.700001
2023-02-16T00:44:05.192Z,31.700001
2023-02-16T00:45:13.723Z,30.6
2023-02-16T00:46:22.086Z,30.6
2023-02-16T00:47:30.359Z,30.6
2023-02-16T00:48:38.905Z,33.299999
2023-02-16T00:49:47.227Z,33.299999
2023-02-16T00:50:55.569Z,33.299999
2023-02-16T00:52:04.122Z,29.5
2023-02-16T00:53:12.451Z,29.5
2023-02-16T00:54:20.821Z,29.5
2023-02-16T00:55:29.338Z,31.200001
2023-02-16T00:56:37.678Z,31.200001
2023-02-16T00:57:45.995Z,31.200001
2023-02-16T00:58:54.538Z,30.6
2023-02-16T01:00:02.874Z,30.6
2023-02-16T01:01:11.219Z,30.6
2023-02-16T01:02:19.750Z,31.299999
2023-02-16T01:03:28.063Z,31.299999
2023-02-16T01:04:36.405Z,31.299999
2023-02-16T01:05:44.919Z,33.200001
2023-02-16T01:06:53.254Z,33.200001
2023-02-16T01:08:01.599Z,33.200001
2023-02-16T01:09:10.134Z,32.900002
2023-02-16T01:10:18.479Z,32.900002
2023-02-16T01:11:26.805Z,32.900002
2023-02-16T01:12:35.343Z,30.5
2023-02-16T01:13:43.684Z,30.5
2023-02-16T01:14:52.013Z,30.5
2023-02-16T01:16:00.605Z,30.5
2023-02-16T01:17:08.863Z,30.5
2023-02-16T01:18:17.202Z,30.5
2023-02-16T01:19:25.730Z,30.4
2023-02-16T01:20:34.050Z,30.4
2023-02-16T01:21:42.368Z,30.4
2023-02-16T01:22:50.932Z,33
2023-02-16T01:23:59.242Z,33
2023-02-16T01:25:07.574Z,33
2023-02-16T01:26:16.172Z,33.299999
2023-02-16T01:27:24.440Z,33.299999
2023-02-16T01:28:32.790Z,33.299999
2023-02-16T01:29:41.322Z,38.299999
2023-02-16T01:30:49.715Z,38.299999
2023-02-16T01:31:58.058Z,38.299999
2023-02-16T01:33:06.493Z,34.099998
2023-02-16T01:34:14.828Z,34.099998
2023-02-16T01:35:23.152Z,34.099998
2023-02-16T01:36:31.706Z,32.900002
2023-02-16T01:37:40.073Z,32.900002
2023-02-16T01:38:48.410Z,32.900002
2023-02-16T01:39:56.953Z,35.900002
2023-02-16T01:41:05.654Z,35.900002
2023-02-16T01:42:13.675Z,35.900002
2023-02-16T01:43:22.178Z,35.799999
2023-02-16T01:44:30.513Z,35.799999
2023-02-16T01:45:38.837Z,35.799999
2023-02-16T01:46:47.468Z,33.700001
2023-02-16T01:47:55.721Z,33.700001
2023-02-16T01:49:04.058Z,33.700001
2023-02-16T01:50:12.594Z,37.599998
2023-02-16T01:51:20.905Z,37.599998
2023-02-16T01:52:29.249Z,37.599998
2023-02-16T01:53:37.773Z,36.099998
2023-02-16T01:54:46.109Z,36.099998
2023-02-16T01:55:54.420Z,36.099998
2023-02-16T01:57:02.960Z,37.299999
2023-02-16T01:58:11.318Z,37.299999
2023-02-16T01:59:19.664Z,37.299999
2023-02-16T02:00:28.181Z,37.200001
2023-02-16T02:01:36.537Z,37.200001
2023-02-16T02:02:44.926Z,37.200001
2023-02-16T02:03:53.389Z,36.900002
2023-02-16T02:05:01.712Z,36.900002
2023-02-16T02:06:10.043Z,36.900002
2023-02-16T02:07:18.598Z,34.700001
2023-02-16T02:08:26.920Z,34.700001
2023-02-16T02:09:35.256Z,34.700001
2023-02-16T02:10:43.781Z,34.799999
2023-02-16T02:11:52.130Z,34.799999
2023-02-16T02:13:00.572Z,34.799999
2023-02-16T02:14:09.079Z,40.700001
2023-02-16T02:15:17.353Z,40.700001
2023-02-16T02:16:25.733Z,40.700001
2023-02-16T02:17:34.237Z,37
2023-02-16T02:18:42.574Z,37
2023-02-16T02:19:50.883Z,37
2023-02-16T02:20:59.409Z,37
2023-02-16T02:22:07.753Z,37
2023-02-16T02:23:16.089Z,37
2023-02-16T02:24:24.608Z,37
2023-02-16T02:25:32.929Z,37
2023-02-16T02:26:41.258Z,37
2023-02-16T02:27:49.797Z,34
2023-02-16T02:28:58.134Z,34
2023-02-16T02:30:06.490Z,34
2023-02-16T02:31:15.051Z,36.400002
2023-02-16T02:32:23.396Z,36.400002
2023-02-16T02:33:31.651Z,36.400002
2023-02-16T02:34:40.200Z,36.700001
2023-02-16T02:35:48.551Z,36.700001
2023-02-16T02:36:56.848Z,36.700001
2023-02-16T02:38:05.404Z,34.299999
2023-02-16T02:39:13.738Z,34.299999
2023-02-16T02:40:22.063Z,34.299999
2023-02-16T02:41:30.608Z,33
2023-02-16T02:42:38.938Z,33
2023-02-16T02:43:47.278Z,33
2023-02-16T02:44:55.833Z,32.799999
2023-02-16T02:46:04.239Z,32.799999
2023-02-16T02:47:12.498Z,32.799999
2023-02-16T02:48:21.046Z,31.799999
2023-02-16T02:49:29.370Z,31.799999
2023-02-16T02:50:37.693Z,31.799999
2023-02-16T02:51:46.261Z,29.700001
2023-02-16T02:52:54.591Z,29.700001
2023-02-16T02:54:02.925Z,29.700001
2023-02-16T02:55:11.459Z,32
2023-02-16T02:56:19.832Z,32
2023-02-16T02:57:28.153Z,32
2023-02-16T02:58:36.726Z,30.799999
2023-02-16T02:59:45.058Z,30.799999
2023-02-16T03:00:53.457Z,30.799999
2023-02-16T03:02:02.053Z,31.1
2023-02-16T03:03:10.276Z,31.1
2023-02-16T03:04:18.599Z,31.1
2023-02-16T03:05:27.128Z,30.299999
2023-02-16T03:06:35.458Z,30.299999
2023-02-16T03:07:43.792Z,30.299999
2023-02-16T03:08:52.354Z,30.299999
2023-02-16T03:10:00.704Z,30.299999
2023-02-16T03:11:09.041Z,30.299999
2023-02-16T03:12:17.589Z,27.4
2023-02-16T03:13:25.921Z,27.4
2023-02-16T03:14:34.314Z,27.4
2023-02-16T03:15:42.808Z,27.9
2023-02-16T03:16:51.159Z,27.9
2023-02-16T03:17:59.508Z,27.9
2023-02-16T03:19:08.024Z,29
2023-02-16T03:20:16.344Z,29
2023-02-16T03:21:24.699Z,29
2023-02-16T03:22:33.244Z,31.5
2023-02-16T03:23:41.593Z,31.5
2023-02-16T03:24:49.909Z,31.5
2023-02-16T03:25:58.443Z,30.5
2023-02-16T03:27:09.149Z,30.5
2023-02-16T03:28:15.118Z,30.5
2023-02-16T03:29:23.682Z,30.1
2023-02-16T03:30:32.155Z,30.1
2023-02-16T03:31:40.484Z,30.1
2023-02-16T03:32:48.909Z,30.299999
2023-02-16T03:33:57.288Z,30.299999
2023-02-16T03:35:05.562Z,30.299999
2023-02-16T03:36:14.093Z,28.9
2023-02-16T03:37:22.448Z,28.9
2023-02-16T03:38:30.801Z,28.9
2023-02-16T03:39:39.352Z,29.200001
2023-02-16T03:40:47.687Z,29.200001
2023-02-16T03:41:56.018Z,29.200001
2023-02-16T03:43:04.569Z,29.200001
2023-02-16T03:44:12.901Z,29.200001
2023-02-16T03:45:21.248Z,29.200001
2023-02-16T03:46:29.775Z,29.5
2023-02-16T03:47:38.114Z,29.5
2023-02-16T03:48:46.470Z,29.5
2023-02-16T03:49:55.030Z,29
2023-02-16T03:51:03.658Z,29
2023-02-16T03:52:11.680Z,29
2023-02-16T03:53:20.218Z,29.799999
2023-02-16T03:54:28.548Z,29.799999
2023-02-16T03:55:36.880Z,29.799999
2023-02-16T03:56:45.427Z,27.700001
2023-02-16T03:57:53.734Z,27.700001
2023-02-16T03:59:02.062Z,27.700001
2023-02-16T04:00:10.608Z,29
2023-02-16T04:01:18.931Z,29
2023-02-16T04:02:27.343Z,29
2023-02-16T04:03:35.828Z,28.700001
2023-02-16T04:04:44.156Z,28.700001
2023-02-16T04:05:52.530Z,28.700001
2023-02-16T04:07:01.059Z,30.4
2023-02-16T04:08:09.389Z,30.4
2023-02-16T04:09:17.726Z,30.4
2023-02-16T04:10:26.258Z,28.6
2023-02-16T04:11:34.604Z,28.6
2023-02-16T04:12:42.975Z,28.6
2023-02-16T04:13:51.487Z,27.6
2023-02-16T04:14:59.817Z,27.6
2023-02-16T04:16:08.200Z,27.6
2023-02-16T04:17:16.725Z,26.799999
2023-02-16T04:18:25.054Z,26.799999
2023-02-16T04:19:33.409Z,26.799999
2023-02-16T04:20:41.936Z,25.1
2023-02-16T04:21:50.287Z,25.1
2023-02-16T04:22:58.601Z,25.1
2023-02-16T04:24:07.144Z,27.1
2023-02-16T04:25:15.454Z,27.1
2023-02-16T04:26:24.815Z,27.1
2023-02-16T04:27:32.346Z,26.299999
2023-02-16T04:28:40.681Z,26.299999
2023-02-16T04:29:49.016Z,26.299999
2023-02-16T04:30:57.644Z,26
2023-02-16T04:32:06.074Z,26
2023-02-16T04:33:14.214Z,26
2023-02-16T04:34:22.766Z,26.6
2023-02-16T04:35:31.108Z,26.6
2023-02-16T04:36:39.458Z,26.6
2023-02-16T04:37:48.014Z,25.5
2023-02-16T04:38:56.353Z,25.5
2023-02-16T04:40:04.690Z,25.5
2023-02-16T04:41:13.218Z,25.1
2023-02-16T04:42:21.548Z,25.1
2023-02-16T04:43:29.875Z,25.1
2023-02-16T04:44:38.441Z,23.700001
2023-02-16T04:45:46.839Z,23.700001
2023-02-16T04:46:55.113Z,23.700001
2023-02-16T04:48:03.675Z,25.299999
2023-02-16T04:49:11.996Z,25.299999
2023-02-16T04:50:20.347Z,25.299999
2023-02-16T04:51:28.875Z,24.200001
2023-02-16T04:52:37.212Z,24.200001
2023-02-16T04:53:45.557Z,24.200001
2023-02-16T04:54:54.062Z,25.9
2023-02-16T04:56:02.416Z,25.9
2023-02-16T04:57:10.784Z,25.9
2023-02-16T04:58:19.328Z,23.5
2023-02-16T04:59:27.680Z,23.5
2023-02-16T05:00:36.630Z,23.5
2023-02-16T05:01:44.554Z,23.1
2023-02-16T05:02:52.879Z,23.1
2023-02-16T05:04:01.216Z,23.1
2023-02-16T05:05:09.759Z,22.299999
2023-02-16T05:06:18.090Z,22.299999
2023-02-16T05:07:26.410Z,22.299999
2023-02-16T05:08:34.954Z,23.1
2023-02-16T05:09:43.292Z,23.1
2023-02-16T05:10:51.596Z,23.1
2023-02-16T05:12:00.143Z,22.5
2023-02-16T05:13:08.464Z,22.5
2023-02-16T05:14:16.805Z,22.5
2023-02-16T05:15:25.337Z,21.1
2023-02-16T05:16:33.682Z,21.1
2023-02-16T05:17:41.997Z,21.1
2023-02-16T05:18:50.540Z,21.200001
2023-02-16T05:19:58.884Z,21.200001
2023-02-16T05:21:07.190Z,21.200001
2023-02-16T05:22:15.733Z,22
2023-02-16T05:23:24.054Z,22
2023-02-16T05:24:32.414Z,22
2023-02-16T05:25:40.980Z,21.4
2023-02-16T05:26:49.290Z,21.4
2023-02-16T05:27:57.682Z,21.4
2023-02-16T05:29:06.185Z,22.200001
2023-02-16T05:30:14.588Z,22.200001
2023-02-16T05:31:23.007Z,22.200001
2023-02-16T05:32:31.351Z,24.6
2023-02-16T05:33:39.695Z,24.6
2023-02-16T05:34:48.012Z,24.6
2023-02-16T05:35:56.545Z,24.4
2023-02-16T05:37:04.880Z,24.4
2023-02-16T05:38:13.208Z,24.4
2023-02-16T05:39:21.748Z,24.4
2023-02-16T05:40:30.066Z,24.4
2023-02-16T05:41:38.418Z,24.4
2023-02-16T05:42:46.925Z,25
2023-02-16T05:43:55.265Z,25
2023-02-16T05:45:03.613Z,25
2023-02-16T05:46:12.202Z,26.5
2023-02-16T05:47:20.451Z,26.5
2023-02-16T05:48:28.801Z,26.5
2023-02-16T05:49:37.327Z,32.099998
2023-02-16T05:50:45.649Z,32.099998
2023-02-16T05:51:53.977Z,32.099998
2023-02-16T05:53:02.521Z,35.099998
2023-02-16T05:54:10.868Z,35.099998
2023-02-16T05:55:19.197Z,35.099998
2023-02-16T05:56:27.746Z,29.200001
2023-02-16T05:57:36.100Z,29.200001
2023-02-16T05:58:44.399Z,29.200001
2023-02-16T05:59:52.951Z,25.700001
2023-02-16T06:01:01.528Z,25.700001
2023-02-16T06:02:09.814Z,25.700001
2023-02-16T06:03:18.396Z,24.299999
2023-02-16T06:04:26.769Z,24.299999
2023-02-16T06:05:35.147Z,24.299999
2023-02-16T06:06:43.704Z,22.6
2023-02-16T06:07:52.038Z,22.6
2023-02-16T06:09:00.378Z,22.6
2023-02-16T06:10:08.913Z,23.799999
2023-02-16T06:11:17.250Z,23.799999
2023-02-16T06:12:25.572Z,23.799999
2023-02-16T06:13:34.153Z,22.799999
2023-02-16T06:14:42.440Z,22.799999
2023-02-16T06:15:50.795Z,22.799999
2023-02-16T06:16:59.302Z,23.4
2023-02-16T06:18:07.636Z,23.4
2023-02-16T06:19:16.005Z,23.4
2023-02-16T06:20:24.524Z,22.700001
2023-02-16T06:21:32.866Z,22.700001
2023-02-16T06:22:41.203Z,22.700001
2023-02-16T06:23:49.781Z,26.1
2023-02-16T06:24:58.106Z,26.1
2023-02-16T06:26:06.439Z,26.1
2023-02-16T06:27:14.960Z,37.799999
2023-02-16T06:28:23.276Z,37.799999
2023-02-16T06:29:31.635Z,37.799999
2023-02-16T06:30:40.150Z,36.799999
2023-02-16T06:31:48.601Z,36.799999
2023-02-16T06:32:56.843Z,36.799999
2023-02-16T06:34:05.393Z,57.799999
2023-02-16T06:35:13.718Z,57.799999
2023-02-16T06:36:22.044Z,57.799999
2023-02-16T06:37:30.600Z,33.900002
2023-02-16T06:38:38.929Z,33.900002
2023-02-16T06:39:47.250Z,33.900002
2023-02-16T06:40:55.798Z,28
2023-02-16T06:42:04.139Z,28
2023-02-16T06:43:12.462Z,28
2023-02-16T06:44:21.032Z,29.700001
2023-02-16T06:45:29.378Z,29.700001
2023-02-16T06:46:37.763Z,29.700001
2023-02-16T06:47:46.211Z,25.700001
2023-02-16T06:48:54.555Z,25.700001
2023-02-16T06:50:02.895Z,25.700001
2023-02-16T06:51:11.421Z,28.1
2023-02-16T06:52:19.755Z,28.1
2023-02-16T06:53:28.111Z,28.1
2023-02-16T06:54:36.658Z,26.9
2023-02-16T06:55:44.997Z,26.9
2023-02-16T06:56:53.308Z,26.9
2023-02-16T06:58:01.860Z,26.799999
2023-02-16T06:59:10.203Z,26.799999
2023-02-16T07:00:18.525Z,26.799999
2023-02-16T07:01:27.130Z,25.200001
2023-02-16T07:02:35.437Z,25.200001
2023-02-16T07:03:43.779Z,25.200001
2023-02-16T07:04:52.341Z,24.5
2023-02-16T07:06:00.681Z,24.5
2023-02-16T07:07:09.020Z,24.5
2023-02-16T07:08:17.569Z,24.799999
2023-02-16T07:09:25.953Z,24.799999
2023-02-16T07:10:47.643Z,24.799999
2023-02-16T07:11:42.815Z,22.9
2023-02-16T07:12:51.157Z,22.9
2023-02-16T07:13:59.489Z,22.9
2023-02-16T07:15:08.022Z,24.799999
2023-02-16T07:16:16.502Z,24.799999
2023-02-16T07:17:24.701Z,24.799999
2023-02-16T07:18:33.242Z,24
2023-02-16T07:19:41.561Z,24
2023-02-16T07:20:50.656Z,24
2023-02-16T07:21:59.238Z,25.799999
2023-02-16T07:23:07.575Z,25.799999
2023-02-16T07:24:15.900Z,25.799999
2023-02-16T07:25:24.428Z,24.5
2023-02-16T07:26:32.762Z,24.5
2023-02-16T07:27:41.092Z,24.5
2023-02-16T07:28:49.635Z,24.9
2023-02-16T07:29:58.002Z,24.9
2023-02-16T07:31:06.709Z,24.9
2023-02-16T07:32:14.858Z,28.200001
2023-02-16T07:33:23.175Z,28.200001
2023-02-16T07:34:31.526Z,28.200001
2023-02-16T07:35:40.061Z,26
2023-02-16T07:36:48.367Z,26
2023-02-16T07:37:56.690Z,26
2023-02-16T07:39:05.238Z,24.700001
2023-02-16T07:40:13.560Z,24.700001
2023-02-16T07:41:21.881Z,24.700001
2023-02-16T07:42:30.409Z,27.6
2023-02-16T07:43:38.751Z,27.6
2023-02-16T07:44:47.078Z,27.6
2023-02-16T07:45:55.713Z,25
2023-02-16T07:47:03.926Z,25
2023-02-16T07:48:12.251Z,25
2023-02-16T07:49:20.822Z,25.200001
2023-02-16T07:50:29.111Z,25.200001
2023-02-16T07:51:37.442Z,25.200001
2023-02-16T07:52:45.975Z,27.700001
2023-02-16T07:53:54.308Z,27.700001
2023-02-16T07:55:02.622Z,27.700001
2023-02-16T07:56:11.156Z,24.299999
2023-02-16T07:57:19.477Z,24.299999
2023-02-16T07:58:27.872Z,24.299999
2023-02-16T07:59:36.350Z,27.299999
2023-02-16T08:00:44.683Z,27.299999
2023-02-16T08:01:53.121Z,27.299999
2023-02-16T08:03:01.731Z,27.799999
2023-02-16T08:04:09.895Z,27.799999
2023-02-16T08:05:18.247Z,27.799999
2023-02-16T08:06:26.777Z,26.200001
2023-02-16T08:07:35.312Z,26.200001
2023-02-16T08:08:43.447Z,26.200001
2023-02-16T08:09:51.986Z,28.5
2023-02-16T08:11:00.308Z,28.5
2023-02-16T08:12:08.648Z,28.5
2023-02-16T08:13:17.181Z,28.1
2023-02-16T08:14:25.506Z,28.1
2023-02-16T08:15:33.832Z,28.1
2023-02-16T08:16:42.411Z,28.1
2023-02-16T08:17:50.727Z,28.1
2023-02-16T08:18:59.050Z,28.1
2023-02-16T08:20:07.610Z,28
2023-02-16T08:21:15.946Z,28
2023-02-16T08:22:24.272Z,28
2023-02-16T08:23:32.792Z,26.799999
2023-02-16T08:24:41.121Z,26.799999
2023-02-16T08:25:49.442Z,26.799999
2023-02-16T08:26:57.982Z,27.1
2023-02-16T08:28:06.322Z,27.1
2023-02-16T08:29:14.657Z,27.1
2023-02-16T08:30:23.257Z,27.200001
2023-02-16T08:31:31.662Z,27.200001
2023-02-16T08:32:39.870Z,27.200001
2023-02-16T08:33:48.408Z,26.9
2023-02-16T08:34:56.728Z,26.9
2023-02-16T08:36:05.332Z,26.9
2023-02-16T08:37:13.611Z,26
2023-02-16T08:38:21.916Z,26
2023-02-16T08:39:30.243Z,26
2023-02-16T08:40:38.788Z,25.299999
2023-02-16T08:41:47.114Z,25.299999
2023-02-16T08:42:55.437Z,25.299999
2023-02-16T08:44:03.981Z,28.200001
2023-02-16T08:45:12.311Z,28.200001
2023-02-16T08:46:20.681Z,28.200001
2023-02-16T08:47:29.157Z,27.200001
2023-02-16T08:48:37.490Z,27.200001
2023-02-16T08:49:45.832Z,27.200001
2023-02-16T08:50:54.370Z,25
2023-02-16T08:52:02.702Z,25
2023-02-16T08:53:11.074Z,25
2023-02-16T08:54:19.561Z,26.799999
2023-02-16T08:55:27.886Z,26.799999
2023-02-16T08:56:36.214Z,26.799999
2023-02-16T08:57:44.740Z,24.700001
2023-02-16T08:58:53.104Z,24.700001
2023-02-16T09:00:01.440Z,24.700001
2023-02-16T09:01:10.714Z,27.799999
2023-02-16T09:02:19.011Z,27.799999
2023-02-16T09:03:27.303Z,27.799999
2023-02-16T09:04:35.841Z,27.4
2023-02-16T09:05:44.167Z,27.4
2023-02-16T09:06:52.537Z,27.4
2023-02-16T09:08:01.018Z,25.700001
2023-02-16T09:09:09.550Z,25.700001
2023-02-16T09:10:17.798Z,25.700001
2023-02-16T09:11:26.345Z,25.5
2023-02-16T09:12:34.672Z,25.5
2023-02-16T09:13:43.060Z,25.5
2023-02-16T09:14:51.588Z,27.4
2023-02-16T09:15:59.936Z,27.4
2023-02-16T09:17:08.306Z,27.4
2023-02-16T09:18:16.808Z,27.5
2023-02-16T09:19:25.157Z,27.5
2023-02-16T09:20:33.496Z,27.5
2023-02-16T09:21:42.002Z,27.5
2023-02-16T09:22:50.355Z,27.5
2023-02-16T09:23:58.677Z,27.5
2023-02-16T09:25:07.259Z,27.9
2023-02-16T09:26:15.534Z,27.9
2023-02-16T09:27:23.850Z,27.9
2023-02-16T09:28:32.396Z,25.299999
2023-02-16T09:29:40.721Z,25.299999
2023-02-16T09:30:49.059Z,25.299999
2023-02-16T09:31:57.615Z,27.1
2023-02-16T09:33:05.892Z,27.1
2023-02-16T09:34:14.227Z,27.1
2023-02-16T09:35:22.771Z,26.4
2023-02-16T09:36:31.098Z,26.4
2023-02-16T09:37:39.413Z,26.4
2023-02-16T09:38:47.950Z,28.4
2023-02-16T09:39:56.283Z,28.4
2023-02-16T09:41:04.693Z,28.4
2023-02-16T09:42:13.186Z,28.1
2023-02-16T09:43:21.529Z,28.1
2023-02-16T09:44:30.275Z,28.1
2023-02-16T09:45:39.673Z,26.700001
2023-02-16T09:46:47.965Z,26.700001
2023-02-16T09:47:56.307Z,26.700001
2023-02-16T09:49:04.843Z,30.1
2023-02-16T09:50:13.215Z,30.1
2023-02-16T09:51:26.391Z,30.1
2023-02-16T09:52:30.024Z,27.1
2023-02-16T09:53:38.344Z,27.1
2023-02-16T09:54:46.679Z,27.1
2023-02-16T09:55:55.201Z,29.5
2023-02-16T09:57:03.565Z,29.5
2023-02-16T09:58:11.878Z,29.5
2023-02-16T09:59:20.431Z,29.1
2023-02-16T10:00:28.787Z,29.1
2023-02-16T10:01:37.183Z,29.1
2023-02-16T10:02:45.759Z,25.5
2023-02-16T10:03:54.063Z,25.5
2023-02-16T10:05:02.429Z,25.5
2023-02-16T10:06:10.939Z,28.4
2023-02-16T10:07:19.253Z,28.4
2023-02-16T10:08:27.591Z,28.4
2023-02-16T10:09:36.110Z,27.1
2023-02-16T10:10:44.453Z,27.1
2023-02-16T10:11:52.782Z,27.1
2023-02-16T10:13:01.331Z,29
2023-02-16T10:14:09.628Z,29
2023-02-16T10:15:17.956Z,29
2023-02-16T10:16:26.499Z,27.4
2023-02-16T10:17:34.819Z,27.4
2023-02-16T10:18:43.141Z,27.4
2023-02-16T10:19:51.714Z,28.1
2023-02-16T10:21:00.026Z,28.1
2023-02-16T10:22:08.392Z,28.1
2023-02-16T10:23:16.915Z,26.299999
2023-02-16T10:24:25.238Z,26.299999
2023-02-16T10:25:33.570Z,26.299999
2023-02-16T10:26:42.109Z,27.9
2023-02-16T10:27:50.454Z,27.9
2023-02-16T10:28:58.798Z,27.9
2023-02-16T10:30:07.287Z,28.9
2023-02-16T10:31:15.777Z,28.9
2023-02-16T10:32:23.945Z,28.9
2023-02-16T10:33:32.474Z,27.799999
2023-02-16T10:34:40.800Z,27.799999
2023-02-16T10:35:49.199Z,27.799999
2023-02-16T10:36:57.701Z,28.200001
2023-02-16T10:38:06.138Z,28.200001
2023-02-16T10:39:14.444Z,28.200001
2023-02-16T10:40:23.507Z,28
2023-02-16T10:41:31.364Z,28
2023-02-16T10:42:39.684Z,28
2023-02-16T10:43:48.209Z,29.700001
2023-02-16T10:44:56.578Z,29.700001
2023-02-16T10:46:04.913Z,29.700001
2023-02-16T10:47:13.410Z,30.299999
2023-02-16T10:48:21.735Z,30.299999
2023-02-16T10:49:30.061Z,30.299999
2023-02-16T10:50:38.599Z,29.5
2023-02-16T10:51:46.916Z,29.5
2023-02-16T10:52:55.232Z,29.5
2023-02-16T10:54:03.801Z,32.200001
2023-02-16T10:55:12.131Z,32.200001
2023-02-16T10:56:20.473Z,32.200001
2023-02-16T10:57:29.002Z,31.9
2023-02-16T10:58:37.327Z,31.9
2023-02-16T10:59:45.645Z,31.9
2023-02-16T11:00:54.214Z,31.799999
2023-02-16T11:02:02.526Z,31.799999
2023-02-16T11:03:10.847Z,31.799999
2023-02-16T11:04:20.717Z,31.200001
2023-02-16T11:05:27.715Z,31.200001
2023-02-16T11:06:36.631Z,31.200001
2023-02-16T11:07:44.579Z,29.299999
2023-02-16T11:08:52.910Z,29.299999
2023-02-16T11:10:01.236Z,29.299999
2023-02-16T11:11:09.776Z,33
2023-02-16T11:12:18.096Z,33
2023-02-16T11:13:26.415Z,33
2023-02-16T11:14:34.934Z,31.1
2023-02-16T11:15:43.300Z,31.1
2023-02-16T11:16:51.625Z,31.1
2023-02-16T11:18:00.155Z,31.799999
2023-02-16T11:19:08.451Z,31.799999
2023-02-16T11:20:16.790Z,31.799999
2023-02-16T11:21:25.324Z,32
2023-02-16T11:22:33.657Z,32
2023-02-16T11:23:41.982Z,32
2023-02-16T11:24:50.574Z,29
2023-02-16T11:25:58.958Z,29
2023-02-16T11:27:07.267Z,29
2023-02-16T11:28:15.821Z,28
2023-02-16T11:29:24.157Z,28
2023-02-16T11:30:32.531Z,28
2023-02-16T11:31:41.186Z,31
2023-02-16T11:32:49.381Z,31
2023-02-16T11:33:57.699Z,31
2023-02-16T11:35:06.227Z,29.9
2023-02-16T11:36:14.574Z,29.9
2023-02-16T11:37:22.887Z,29.9
2023-02-16T11:38:31.449Z,31.1
2023-02-16T11:39:39.773Z,31.1
2023-02-16T11:40:48.150Z,31.1
2023-02-16T11:41:56.705Z,29.9
2023-02-16T11:43:05.052Z,29.9
2023-02-16T11:44:13.360Z,29.9
2023-02-16T11:45:21.889Z,30.4
2023-02-16T11:46:30.259Z,30.4
2023-02-16T11:47:38.606Z,30.4
2023-02-16T11:48:47.143Z,30
2023-02-16T11:49:55.453Z,30
2023-02-16T11:51:04.135Z,30
2023-02-16T11:52:12.364Z,31.299999
2023-02-16T11:53:20.700Z,31.299999
2023-02-16T11:54:29.038Z,31.299999
2023-02-16T11:55:37.563Z,30.5
2023-02-16T11:56:45.920Z,30.5
2023-02-16T11:57:54.246Z,30.5
2023-02-16T11:59:02.822Z,32.599998
2023-02-16T12:00:11.144Z,32.599998
2023-02-16T12:01:19.487Z,32.599998
2023-02-16T12:02:28.040Z,29.6
2023-02-16T12:03:36.384Z,29.6
2023-02-16T12:04:44.725Z,29.6
2023-02-16T12:05:53.238Z,31.299999
2023-02-16T12:07:01.565Z,31.299999
2023-02-16T12:08:09.931Z,31.299999
2023-02-16T12:09:18.479Z,30.9
2023-02-16T12:10:26.801Z,30.9
2023-02-16T12:11:35.136Z,30.9
2023-02-16T12:12:43.693Z,29.299999
2023-02-16T12:13:52.014Z,29.299999
2023-02-16T12:15:00.331Z,29.299999
2023-02-16T12:16:09.297Z,28.6
2023-02-16T12:17:17.230Z,28.6
2023-02-16T12:18:25.553Z,28.6
2023-02-16T12:19:34.101Z,32.400002
2023-02-16T12:20:42.470Z,32.400002
2023-02-16T12:21:50.760Z,32.400002
2023-02-16T12:22:59.311Z,29.6
2023-02-16T12:24:07.664Z,29.6
2023-02-16T12:25:15.984Z,29.6
2023-02-16T12:26:24.544Z,29.5
2023-02-16T12:27:32.876Z,29.5
2023-02-16T12:28:41.218Z,29.5
2023-02-16T12:29:49.775Z,28.799999
2023-02-16T12:30:58.128Z,28.799999
2023-02-16T12:32:06.446Z,28.799999
2023-02-16T12:33:15.012Z,29.1
2023-02-16T12:34:23.303Z,29.1
2023-02-16T12:35:31.659Z,29.1
2023-02-16T12:36:40.249Z,28.200001
2023-02-16T12:37:48.562Z,28.200001
2023-02-16T12:38:56.895Z,28.200001
2023-02-16T12:40:05.424Z,28.200001
2023-02-16T12:41:13.782Z,28.200001
2023-02-16T12:42:22.142Z,28.200001
2023-02-16T12:43:30.657Z,28.200001
2023-02-16T12:44:39.002Z,28.200001
2023-02-16T12:45:47.399Z,28.200001
2023-02-16T12:46:55.877Z,30.6
2023-02-16T12:48:04.237Z,30.6
2023-02-16T12:49:12.584Z,30.6
2023-02-16T12:50:21.117Z,29.4
2023-02-16T12:51:29.455Z,29.4
2023-02-16T12:52:37.814Z,29.4
2023-02-16T12:53:46.353Z,31.4
2023-02-16T12:54:54.705Z,31.4
2023-02-16T12:56:03.380Z,31.4
2023-02-16T12:57:11.599Z,29.700001
2023-02-16T12:58:19.922Z,29.700001
2023-02-16T12:59:28.254Z,29.700001
2023-02-16T13:00:36.799Z,32.299999
2023-02-16T13:01:45.149Z,32.299999
2023-02-16T13:02:53.498Z,32.299999
2023-02-16T13:04:02.035Z,26.5
2023-02-16T13:05:10.383Z,26.5
2023-02-16T13:06:18.716Z,26.5
2023-02-16T13:07:27.282Z,30.700001
2023-02-16T13:08:35.650Z,30.700001
2023-02-16T13:09:43.947Z,30.700001
2023-02-16T13:10:52.505Z,27.200001
2023-02-16T13:12:02.364Z,27.200001
2023-02-16T13:13:09.194Z,27.200001
2023-02-16T13:14:17.694Z,26.799999
2023-02-16T13:15:26.047Z,26.799999
2023-02-16T13:16:34.412Z,26.799999
2023-02-16T13:17:42.923Z,27
2023-02-16T13:18:51.269Z,27
2023-02-16T13:19:59.593Z,27
2023-02-16T13:21:08.154Z,25.5
2023-02-16T13:22:16.464Z,25.5
2023-02-16T13:23:24.798Z,25.5
2023-02-16T13:24:33.343Z,25.1
2023-02-16T13:25:41.792Z,25.1
2023-02-16T13:26:50.041Z,25.1
2023-02-16T13:27:58.547Z,25.5
2023-02-16T13:29:07.039Z,25.5
2023-02-16T13:30:15.263Z,25.5
2023-02-16T13:31:23.871Z,25.9
2023-02-16T13:32:32.110Z,25.9
2023-02-16T13:33:40.446Z,25.9
2023-02-16T13:34:48.992Z,26.9
2023-02-16T13:35:57.339Z,26.9
2023-02-16T13:37:05.690Z,26.9
2023-02-16T13:38:14.215Z,24.5
2023-02-16T13:39:22.551Z,24.5
2023-02-16T13:40:30.907Z,24.5
2023-02-16T13:41:39.427Z,24.799999
2023-02-16T13:42:47.749Z,24.799999
2023-02-16T13:43:56.068Z,24.799999
2023-02-16T13:45:04.608Z,24.9
2023-02-16T13:46:13.009Z,24.9
2023-02-16T13:47:21.295Z,24.9
2023-02-16T13:48:29.852Z,25.4
2023-02-16T13:49:38.176Z,25.4
2023-02-16T13:50:47.807Z,25.4
2023-02-16T13:51:55.051Z,24.6
2023-02-16T13:53:03.382Z,24.6
2023-02-16T13:54:11.718Z,24.6
2023-02-16T13:55:20.261Z,23.5
2023-02-16T13:56:28.669Z,23.5
2023-02-16T13:57:36.934Z,23.5
2023-02-16T13:58:45.479Z,25.4
2023-02-16T13:59:53.809Z,25.4
2023-02-16T14:01:02.160Z,25.4
2023-02-16T14:02:10.703Z,23.6
2023-02-16T14:03:19.044Z,23.6
2023-02-16T14:04:27.436Z,23.6
2023-02-16T14:05:35.928Z,24.700001
2023-02-16T14:06:44.272Z,24.700001
2023-02-16T14:07:52.607Z,24.700001
2023-02-16T14:09:01.142Z,24.6
2023-02-16T14:10:09.475Z,24.6
2023-02-16T14:11:17.793Z,24.6
2023-02-16T14:12:26.398Z,25.4
2023-02-16T14:13:34.680Z,25.4
2023-02-16T14:14:43.028Z,25.4